sensor_id;sensor_type;location;lat;lon;timestamp;P1;durP1;ratioP1;P2;durP2;ratioP2
21820;SDS011;11073;48.586;12.066;2022-09-27T00:01:03;2.75;;;1.80;;
21820;SDS011;11073;48.586;12.066;2022-09-27T00:03:34;2.20;;;1.60;;
21820;SDS011;11073;48.586;12.066;2022-09-27T00:06:03;3.65;;;1.70;;
21820;SDS011;11073;48.586;12.066;2022-09-27T00:08:34;2.10;;;1.38;;
21820;SDS011;11073;48.586;12.066;2022-09-27T00:11:05;1.58;;;1.25;;
21820;SDS011;11073;48.586;12.066;2022-09-27T00:13:36;2.15;;;1.35;;
21820;SDS011;11073;48.586;12.066;2022-09-27T00:16:05;1.50;;;1.40;;
21820;SDS011;11073;48.586;12.066;2022-09-27T00:18:33;1.70;;;1.38;;
21820;SDS011;11073;48.586;12.066;2022-09-27T00:21:03;1.58;;;1.27;;
21820;SDS011;11073;48.586;12.066;2022-09-27T00:23:33;1.60;;;1.30;;
21820;SDS011;11073;48.586;12.066;2022-09-27T00:26:03;3.42;;;1.45;;
21820;SDS011;11073;48.586;12.066;2022-09-27T00:28:33;2.00;;;1.25;;
21820;SDS011;11073;48.586;12.066;2022-09-27T00:31:03;1.70;;;1.33;;
21820;SDS011;11073;48.586;12.066;2022-09-27T00:33:38;4.35;;;1.23;;
21820;SDS011;11073;48.586;12.066;2022-09-27T00:36:07;1.98;;;1.10;;
21820;SDS011;11073;48.586;12.066;2022-09-27T00:38:35;1.35;;;1.17;;
21820;SDS011;11073;48.586;12.066;2022-09-27T00:41:04;1.80;;;1.27;;
21820;SDS011;11073;48.586;12.066;2022-09-27T00:43:41;2.35;;;1.63;;
21820;SDS011;11073;48.586;12.066;2022-09-27T00:46:14;2.63;;;1.00;;
21820;SDS011;11073;48.586;12.066;2022-09-27T00:48:50;1.67;;;1.48;;
21820;SDS011;11073;48.586;12.066;2022-09-27T00:51:29;2.33;;;1.45;;
21820;SDS011;11073;48.586;12.066;2022-09-27T00:54:00;2.15;;;1.38;;
21820;SDS011;11073;48.586;12.066;2022-09-27T00:56:30;1.83;;;1.63;;
21820;SDS011;11073;48.586;12.066;2022-09-27T00:59:01;1.67;;;1.58;;
21820;SDS011;11073;48.586;12.066;2022-09-27T01:01:36;2.08;;;1.55;;
21820;SDS011;11073;48.586;12.066;2022-09-27T01:04:06;4.82;;;1.40;;
21820;SDS011;11073;48.586;12.066;2022-09-27T01:06:36;6.30;;;1.50;;
21820;SDS011;11073;48.586;12.066;2022-09-27T01:09:05;2.45;;;1.02;;
21820;SDS011;11073;48.586;12.066;2022-09-27T01:11:38;1.65;;;1.40;;
21820;SDS011;11073;48.586;12.066;2022-09-27T01:14:19;5.47;;;1.52;;
21820;SDS011;11073;48.586;12.066;2022-09-27T01:17:07;2.10;;;1.50;;
21820;SDS011;11073;48.586;12.066;2022-09-27T01:20:01;2.65;;;1.70;;
21820;SDS011;11073;48.586;12.066;2022-09-27T01:22:51;2.60;;;1.80;;
21820;SDS011;11073;48.586;12.066;2022-09-27T01:25:37;3.13;;;1.60;;
21820;SDS011;11073;48.586;12.066;2022-09-27T01:28:19;1.95;;;1.35;;
21820;SDS011;11073;48.586;12.066;2022-09-27T01:30:58;3.42;;;1.50;;
21820;SDS011;11073;48.586;12.066;2022-09-27T01:33:34;3.40;;;1.42;;
21820;SDS011;11073;48.586;12.066;2022-09-27T01:36:15;2.30;;;1.80;;
21820;SDS011;11073;48.586;12.066;2022-09-27T01:38:53;3.20;;;1.67;;
21820;SDS011;11073;48.586;12.066;2022-09-27T01:41:46;7.25;;;2.08;;
21820;SDS011;11073;48.586;12.066;2022-09-27T01:44:34;4.88;;;1.90;;
21820;SDS011;11073;48.586;12.066;2022-09-27T01:47:14;1.90;;;1.60;;
21820;SDS011;11073;48.586;12.066;2022-09-27T01:49:53;3.53;;;2.05;;
21820;SDS011;11073;48.586;12.066;2022-09-27T01:52:26;3.50;;;1.65;;
21820;SDS011;11073;48.586;12.066;2022-09-27T01:55:02;3.00;;;1.63;;
21820;SDS011;11073;48.586;12.066;2022-09-27T01:57:55;2.13;;;1.65;;
21820;SDS011;11073;48.586;12.066;2022-09-27T02:00:27;2.72;;;1.80;;
21820;SDS011;11073;48.586;12.066;2022-09-27T02:02:58;4.63;;;2.42;;
21820;SDS011;11073;48.586;12.066;2022-09-27T02:05:32;2.97;;;2.20;;
21820;SDS011;11073;48.586;12.066;2022-09-27T02:08:24;2.55;;;2.10;;
21820;SDS011;11073;48.586;12.066;2022-09-27T02:11:09;3.95;;;2.08;;
21820;SDS011;11073;48.586;12.066;2022-09-27T02:13:43;3.70;;;2.28;;
21820;SDS011;11073;48.586;12.066;2022-09-27T02:16:40;3.05;;;2.30;;
21820;SDS011;11073;48.586;12.066;2022-09-27T02:19:26;2.47;;;2.08;;
21820;SDS011;11073;48.586;12.066;2022-09-27T02:22:04;2.25;;;2.05;;
21820;SDS011;11073;48.586;12.066;2022-09-27T02:24:44;2.60;;;2.03;;
21820;SDS011;11073;48.586;12.066;2022-09-27T02:27:20;3.78;;;2.25;;
21820;SDS011;11073;48.586;12.066;2022-09-27T02:29:52;2.33;;;1.90;;
21820;SDS011;11073;48.586;12.066;2022-09-27T02:32:25;3.25;;;1.77;;
21820;SDS011;11073;48.586;12.066;2022-09-27T02:34:57;3.42;;;1.95;;
21820;SDS011;11073;48.586;12.066;2022-09-27T02:37:28;4.25;;;2.10;;
21820;SDS011;11073;48.586;12.066;2022-09-27T02:39:58;5.60;;;2.00;;
21820;SDS011;11073;48.586;12.066;2022-09-27T02:42:26;3.58;;;2.20;;
21820;SDS011;11073;48.586;12.066;2022-09-27T02:44:56;1.88;;;1.65;;
21820;SDS011;11073;48.586;12.066;2022-09-27T02:47:27;2.67;;;1.58;;
21820;SDS011;11073;48.586;12.066;2022-09-27T02:50:15;2.00;;;1.77;;
21820;SDS011;11073;48.586;12.066;2022-09-27T02:53:20;2.10;;;1.70;;
21820;SDS011;11073;48.586;12.066;2022-09-27T02:56:02;2.58;;;1.73;;
21820;SDS011;11073;48.586;12.066;2022-09-27T02:59:16;2.30;;;1.50;;
21820;SDS011;11073;48.586;12.066;2022-09-27T03:02:10;1.98;;;1.50;;
21820;SDS011;11073;48.586;12.066;2022-09-27T03:04:59;4.13;;;1.75;;
21820;SDS011;11073;48.586;12.066;2022-09-27T03:07:32;3.50;;;1.60;;
21820;SDS011;11073;48.586;12.066;2022-09-27T03:10:03;2.85;;;1.40;;
21820;SDS011;11073;48.586;12.066;2022-09-27T03:12:32;3.20;;;1.88;;
21820;SDS011;11073;48.586;12.066;2022-09-27T03:15:01;5.60;;;1.85;;
21820;SDS011;11073;48.586;12.066;2022-09-27T03:17:51;1.98;;;1.45;;
21820;SDS011;11073;48.586;12.066;2022-09-27T03:20:29;2.58;;;1.65;;
21820;SDS011;11073;48.586;12.066;2022-09-27T03:23:08;2.30;;;1.58;;
21820;SDS011;11073;48.586;12.066;2022-09-27T03:25:36;4.05;;;1.85;;
21820;SDS011;11073;48.586;12.066;2022-09-27T03:28:05;1.90;;;1.50;;
21820;SDS011;11073;48.586;12.066;2022-09-27T03:30:34;3.38;;;1.70;;
21820;SDS011;11073;48.586;12.066;2022-09-27T03:33:04;3.30;;;2.05;;
21820;SDS011;11073;48.586;12.066;2022-09-27T03:35:47;1.85;;;1.67;;
21820;SDS011;11073;48.586;12.066;2022-09-27T03:38:18;3.25;;;1.65;;
21820;SDS011;11073;48.586;12.066;2022-09-27T03:40:47;2.63;;;1.70;;
21820;SDS011;11073;48.586;12.066;2022-09-27T03:43:15;4.45;;;1.58;;
21820;SDS011;11073;48.586;12.066;2022-09-27T03:45:45;4.25;;;2.10;;
21820;SDS011;11073;48.586;12.066;2022-09-27T03:48:16;3.00;;;1.80;;
21820;SDS011;11073;48.586;12.066;2022-09-27T03:50:45;3.22;;;1.98;;
21820;SDS011;11073;48.586;12.066;2022-09-27T03:53:14;2.58;;;1.85;;
21820;SDS011;11073;48.586;12.066;2022-09-27T03:55:45;3.60;;;1.42;;
21820;SDS011;11073;48.586;12.066;2022-09-27T03:58:14;2.33;;;1.55;;
21820;SDS011;11073;48.586;12.066;2022-09-27T04:00:44;3.60;;;1.80;;
21820;SDS011;11073;48.586;12.066;2022-09-27T04:03:13;2.38;;;1.70;;
21820;SDS011;11073;48.586;12.066;2022-09-27T04:06:02;2.70;;;1.55;;
21820;SDS011;11073;48.586;12.066;2022-09-27T04:08:38;1.75;;;1.40;;
21820;SDS011;11073;48.586;12.066;2022-09-27T04:11:08;2.65;;;1.83;;
21820;SDS011;11073;48.586;12.066;2022-09-27T04:13:39;2.10;;;1.52;;
21820;SDS011;11073;48.586;12.066;2022-09-27T04:16:07;2.25;;;0.98;;
21820;SDS011;11073;48.586;12.066;2022-09-27T04:19:11;2.38;;;1.35;;
21820;SDS011;11073;48.586;12.066;2022-09-27T04:21:51;4.22;;;1.95;;
21820;SDS011;11073;48.586;12.066;2022-09-27T04:24:20;2.78;;;1.63;;
21820;SDS011;11073;48.586;12.066;2022-09-27T04:27:08;2.80;;;1.52;;
21820;SDS011;11073;48.586;12.066;2022-09-27T04:29:39;1.48;;;1.27;;
21820;SDS011;11073;48.586;12.066;2022-09-27T04:32:24;2.35;;;1.52;;
21820;SDS011;11073;48.586;12.066;2022-09-27T04:35:11;1.80;;;1.55;;
21820;SDS011;11073;48.586;12.066;2022-09-27T04:37:58;1.92;;;1.60;;
21820;SDS011;11073;48.586;12.066;2022-09-27T04:40:27;1.98;;;1.38;;
21820;SDS011;11073;48.586;12.066;2022-09-27T04:42:57;2.47;;;1.58;;
21820;SDS011;11073;48.586;12.066;2022-09-27T04:45:26;2.40;;;1.52;;
21820;SDS011;11073;48.586;12.066;2022-09-27T04:47:54;1.95;;;1.58;;
21820;SDS011;11073;48.586;12.066;2022-09-27T04:50:23;2.33;;;1.40;;
21820;SDS011;11073;48.586;12.066;2022-09-27T04:53:01;3.25;;;1.70;;
21820;SDS011;11073;48.586;12.066;2022-09-27T04:55:29;2.85;;;1.83;;
21820;SDS011;11073;48.586;12.066;2022-09-27T04:58:00;4.88;;;1.80;;
21820;SDS011;11073;48.586;12.066;2022-09-27T05:00:29;2.08;;;1.30;;
21820;SDS011;11073;48.586;12.066;2022-09-27T05:03:14;2.50;;;2.08;;
21820;SDS011;11073;48.586;12.066;2022-09-27T05:05:56;2.60;;;2.00;;
21820;SDS011;11073;48.586;12.066;2022-09-27T05:08:25;2.40;;;1.80;;
21820;SDS011;11073;48.586;12.066;2022-09-27T05:11:13;3.30;;;2.15;;
21820;SDS011;11073;48.586;12.066;2022-09-27T05:14:03;4.20;;;2.15;;
21820;SDS011;11073;48.586;12.066;2022-09-27T05:16:41;2.92;;;1.98;;
21820;SDS011;11073;48.586;12.066;2022-09-27T05:19:28;3.10;;;2.08;;
21820;SDS011;11073;48.586;12.066;2022-09-27T05:22:13;2.45;;;1.88;;
21820;SDS011;11073;48.586;12.066;2022-09-27T05:24:41;3.30;;;2.47;;
21820;SDS011;11073;48.586;12.066;2022-09-27T05:27:11;7.00;;;4.10;;
21820;SDS011;11073;48.586;12.066;2022-09-27T05:29:46;4.07;;;2.78;;
21820;SDS011;11073;48.586;12.066;2022-09-27T05:32:23;2.95;;;2.10;;
21820;SDS011;11073;48.586;12.066;2022-09-27T05:35:12;3.58;;;1.90;;
21820;SDS011;11073;48.586;12.066;2022-09-27T05:37:40;2.25;;;1.77;;
21820;SDS011;11073;48.586;12.066;2022-09-27T05:40:09;2.75;;;1.80;;
21820;SDS011;11073;48.586;12.066;2022-09-27T05:42:58;2.40;;;1.90;;
21820;SDS011;11073;48.586;12.066;2022-09-27T05:45:28;3.55;;;1.90;;
21820;SDS011;11073;48.586;12.066;2022-09-27T05:48:02;3.20;;;1.73;;
21820;SDS011;11073;48.586;12.066;2022-09-27T05:50:35;2.00;;;1.40;;
21820;SDS011;11073;48.586;12.066;2022-09-27T05:53:04;1.55;;;1.25;;
21820;SDS011;11073;48.586;12.066;2022-09-27T05:55:33;2.92;;;1.70;;
21820;SDS011;11073;48.586;12.066;2022-09-27T05:58:03;1.85;;;1.40;;
21820;SDS011;11073;48.586;12.066;2022-09-27T06:00:45;1.40;;;1.27;;
21820;SDS011;11073;48.586;12.066;2022-09-27T06:03:34;1.00;;;0.90;;
21820;SDS011;11073;48.586;12.066;2022-09-27T06:06:22;1.40;;;1.30;;
21820;SDS011;11073;48.586;12.066;2022-09-27T06:08:56;1.55;;;1.33;;
21820;SDS011;11073;48.586;12.066;2022-09-27T06:11:28;2.10;;;1.20;;
21820;SDS011;11073;48.586;12.066;2022-09-27T06:13:58;1.90;;;1.50;;
21820;SDS011;11073;48.586;12.066;2022-09-27T06:16:31;1.58;;;0.93;;
21820;SDS011;11073;48.586;12.066;2022-09-27T06:19:01;1.83;;;1.40;;
21820;SDS011;11073;48.586;12.066;2022-09-27T06:21:30;1.20;;;1.08;;
21820;SDS011;11073;48.586;12.066;2022-09-27T06:23:59;1.70;;;1.10;;
21820;SDS011;11073;48.586;12.066;2022-09-27T06:26:34;1.52;;;0.60;;
21820;SDS011;11073;48.586;12.066;2022-09-27T06:29:13;1.17;;;0.80;;
21820;SDS011;11073;48.586;12.066;2022-09-27T06:32:09;1.10;;;0.60;;
21820;SDS011;11073;48.586;12.066;2022-09-27T06:35:06;3.10;;;0.52;;
21820;SDS011;11073;48.586;12.066;2022-09-27T06:37:35;2.03;;;0.80;;
21820;SDS011;11073;48.586;12.066;2022-09-27T06:40:04;1.60;;;1.17;;
21820;SDS011;11073;48.586;12.066;2022-09-27T06:42:47;1.85;;;1.05;;
21820;SDS011;11073;48.586;12.066;2022-09-27T06:45:24;1.73;;;1.13;;
21820;SDS011;11073;48.586;12.066;2022-09-27T06:48:15;1.48;;;0.93;;
21820;SDS011;11073;48.586;12.066;2022-09-27T06:50:53;1.48;;;1.20;;
21820;SDS011;11073;48.586;12.066;2022-09-27T06:53:42;2.75;;;1.17;;
21820;SDS011;11073;48.586;12.066;2022-09-27T06:56:30;1.27;;;0.80;;
21820;SDS011;11073;48.586;12.066;2022-09-27T06:59:00;1.25;;;0.85;;
21820;SDS011;11073;48.586;12.066;2022-09-27T07:01:55;1.52;;;0.80;;
21820;SDS011;11073;48.586;12.066;2022-09-27T07:04:40;2.10;;;1.30;;
21820;SDS011;11073;48.586;12.066;2022-09-27T07:07:27;2.25;;;1.20;;
21820;SDS011;11073;48.586;12.066;2022-09-27T07:09:56;1.58;;;1.00;;
21820;SDS011;11073;48.586;12.066;2022-09-27T07:12:32;2.10;;;1.25;;
21820;SDS011;11073;48.586;12.066;2022-09-27T07:15:03;1.75;;;0.77;;
21820;SDS011;11073;48.586;12.066;2022-09-27T07:17:34;1.20;;;1.00;;
21820;SDS011;11073;48.586;12.066;2022-09-27T07:20:05;1.20;;;0.80;;
21820;SDS011;11073;48.586;12.066;2022-09-27T07:22:38;1.30;;;0.80;;
21820;SDS011;11073;48.586;12.066;2022-09-27T07:25:08;3.78;;;0.85;;
21820;SDS011;11073;48.586;12.066;2022-09-27T07:27:38;1.85;;;1.00;;
21820;SDS011;11073;48.586;12.066;2022-09-27T07:30:09;3.55;;;1.42;;
21820;SDS011;11073;48.586;12.066;2022-09-27T07:32:39;1.20;;;0.60;;
21820;SDS011;11073;48.586;12.066;2022-09-27T07:35:10;2.20;;;1.15;;
21820;SDS011;11073;48.586;12.066;2022-09-27T07:37:41;4.57;;;1.92;;
21820;SDS011;11073;48.586;12.066;2022-09-27T07:40:12;6.35;;;3.30;;
21820;SDS011;11073;48.586;12.066;2022-09-27T07:42:41;6.88;;;4.25;;
21820;SDS011;11073;48.586;12.066;2022-09-27T07:45:10;3.22;;;2.30;;
21820;SDS011;11073;48.586;12.066;2022-09-27T07:47:48;2.67;;;1.30;;
21820;SDS011;11073;48.586;12.066;2022-09-27T07:50:26;3.92;;;1.73;;
21820;SDS011;11073;48.586;12.066;2022-09-27T07:53:02;2.65;;;0.80;;
21820;SDS011;11073;48.586;12.066;2022-09-27T07:55:55;2.38;;;1.40;;
21820;SDS011;11073;48.586;12.066;2022-09-27T07:58:27;1.23;;;0.63;;
21820;SDS011;11073;48.586;12.066;2022-09-27T08:01:03;3.17;;;0.88;;
21820;SDS011;11073;48.586;12.066;2022-09-27T08:03:31;2.42;;;0.95;;
21820;SDS011;11073;48.586;12.066;2022-09-27T08:06:03;2.92;;;1.30;;
21820;SDS011;11073;48.586;12.066;2022-09-27T08:08:32;1.58;;;1.00;;
21820;SDS011;11073;48.586;12.066;2022-09-27T08:11:09;2.72;;;1.15;;
21820;SDS011;11073;48.586;12.066;2022-09-27T08:13:47;1.88;;;0.85;;
21820;SDS011;11073;48.586;12.066;2022-09-27T08:16:21;2.92;;;0.95;;
21820;SDS011;11073;48.586;12.066;2022-09-27T08:19:09;2.38;;;1.10;;
21820;SDS011;11073;48.586;12.066;2022-09-27T08:21:45;1.67;;;0.70;;
21820;SDS011;11073;48.586;12.066;2022-09-27T08:24:17;1.40;;;0.50;;
21820;SDS011;11073;48.586;12.066;2022-09-27T08:27:00;4.32;;;1.20;;
21820;SDS011;11073;48.586;12.066;2022-09-27T08:30:06;1.20;;;0.85;;
21820;SDS011;11073;48.586;12.066;2022-09-27T08:32:42;3.03;;;1.85;;
21820;SDS011;11073;48.586;12.066;2022-09-27T08:35:10;3.50;;;1.45;;
21820;SDS011;11073;48.586;12.066;2022-09-27T08:37:43;2.97;;;1.40;;
21820;SDS011;11073;48.586;12.066;2022-09-27T08:40:12;1.98;;;0.80;;
21820;SDS011;11073;48.586;12.066;2022-09-27T08:42:45;3.60;;;1.13;;
21820;SDS011;11073;48.586;12.066;2022-09-27T08:45:27;2.40;;;0.80;;
21820;SDS011;11073;48.586;12.066;2022-09-27T08:48:01;2.97;;;1.10;;
21820;SDS011;11073;48.586;12.066;2022-09-27T08:50:32;1.85;;;0.88;;
21820;SDS011;11073;48.586;12.066;2022-09-27T08:53:29;3.17;;;1.00;;
21820;SDS011;11073;48.586;12.066;2022-09-27T08:56:05;1.95;;;0.80;;
21820;SDS011;11073;48.586;12.066;2022-09-27T08:58:43;4.00;;;1.10;;
21820;SDS011;11073;48.586;12.066;2022-09-27T09:01:39;2.35;;;0.80;;
21820;SDS011;11073;48.586;12.066;2022-09-27T09:04:13;2.83;;;0.93;;
21820;SDS011;11073;48.586;12.066;2022-09-27T09:06:50;0.93;;;0.52;;
21820;SDS011;11073;48.586;12.066;2022-09-27T09:09:36;1.80;;;0.77;;
21820;SDS011;11073;48.586;12.066;2022-09-27T09:12:23;1.83;;;0.77;;
21820;SDS011;11073;48.586;12.066;2022-09-27T09:15:36;0.93;;;0.35;;
21820;SDS011;11073;48.586;12.066;2022-09-27T09:18:33;1.98;;;1.05;;
21820;SDS011;11073;48.586;12.066;2022-09-27T09:21:38;3.67;;;0.50;;
21820;SDS011;11073;48.586;12.066;2022-09-27T09:24:17;1.17;;;0.70;;
21820;SDS011;11073;48.586;12.066;2022-09-27T09:26:57;1.10;;;0.60;;
21820;SDS011;11073;48.586;12.066;2022-09-27T09:29:35;2.25;;;1.00;;
21820;SDS011;11073;48.586;12.066;2022-09-27T09:32:24;2.22;;;0.70;;
21820;SDS011;11073;48.586;12.066;2022-09-27T09:35:02;1.73;;;1.02;;
21820;SDS011;11073;48.586;12.066;2022-09-27T09:37:37;0.85;;;0.57;;
21820;SDS011;11073;48.586;12.066;2022-09-27T09:40:13;2.22;;;0.90;;
21820;SDS011;11073;48.586;12.066;2022-09-27T09:42:50;2.75;;;0.80;;
21820;SDS011;11073;48.586;12.066;2022-09-27T09:45:26;3.17;;;1.15;;
21820;SDS011;11073;48.586;12.066;2022-09-27T09:48:02;1.13;;;0.50;;
21820;SDS011;11073;48.586;12.066;2022-09-27T09:50:34;2.55;;;0.50;;
21820;SDS011;11073;48.586;12.066;2022-09-27T09:53:10;2.22;;;0.70;;
21820;SDS011;11073;48.586;12.066;2022-09-27T09:55:45;1.30;;;0.70;;
21820;SDS011;11073;48.586;12.066;2022-09-27T09:58:21;1.58;;;0.60;;
21820;SDS011;11073;48.586;12.066;2022-09-27T10:00:58;1.95;;;0.60;;
21820;SDS011;11073;48.586;12.066;2022-09-27T10:03:40;1.70;;;0.80;;
21820;SDS011;11073;48.586;12.066;2022-09-27T10:06:10;2.38;;;0.52;;
21820;SDS011;11073;48.586;12.066;2022-09-27T10:08:40;0.68;;;0.52;;
21820;SDS011;11073;48.586;12.066;2022-09-27T10:11:46;3.20;;;0.70;;
21820;SDS011;11073;48.586;12.066;2022-09-27T10:14:21;1.48;;;0.65;;
21820;SDS011;11073;48.586;12.066;2022-09-27T10:16:53;2.08;;;0.80;;
21820;SDS011;11073;48.586;12.066;2022-09-27T10:19:27;2.53;;;0.52;;
21820;SDS011;11073;48.586;12.066;2022-09-27T10:22:00;8.25;;;2.67;;
21820;SDS011;11073;48.586;12.066;2022-09-27T10:24:32;3.05;;;2.53;;
21820;SDS011;11073;48.586;12.066;2022-09-27T10:27:41;3.22;;;2.10;;
21820;SDS011;11073;48.586;12.066;2022-09-27T10:30:23;3.53;;;1.73;;
21820;SDS011;11073;48.586;12.066;2022-09-27T10:32:56;1.85;;;0.82;;
21820;SDS011;11073;48.586;12.066;2022-09-27T10:35:53;2.58;;;1.50;;
21820;SDS011;11073;48.586;12.066;2022-09-27T10:38:28;2.22;;;1.30;;
21820;SDS011;11073;48.586;12.066;2022-09-27T10:41:21;3.45;;;1.30;;
21820;SDS011;11073;48.586;12.066;2022-09-27T10:44:19;1.85;;;0.95;;
21820;SDS011;11073;48.586;12.066;2022-09-27T10:47:22;1.35;;;0.88;;
21820;SDS011;11073;48.586;12.066;2022-09-27T10:50:31;1.77;;;0.80;;
21820;SDS011;11073;48.586;12.066;2022-09-27T10:53:25;3.58;;;1.73;;
21820;SDS011;11073;48.586;12.066;2022-09-27T10:56:00;2.17;;;1.58;;
21820;SDS011;11073;48.586;12.066;2022-09-27T10:58:32;3.42;;;1.02;;
21820;SDS011;11073;48.586;12.066;2022-09-27T11:01:26;2.20;;;1.48;;
21820;SDS011;11073;48.586;12.066;2022-09-27T11:04:25;1.88;;;1.20;;
21820;SDS011;11073;48.586;12.066;2022-09-27T11:07:07;3.53;;;1.52;;
21820;SDS011;11073;48.586;12.066;2022-09-27T11:09:44;2.00;;;0.88;;
21820;SDS011;11073;48.586;12.066;2022-09-27T11:12:34;2.85;;;1.13;;
21820;SDS011;11073;48.586;12.066;2022-09-27T11:15:26;2.72;;;1.15;;
21820;SDS011;11073;48.586;12.066;2022-09-27T11:18:19;1.67;;;0.70;;
21820;SDS011;11073;48.586;12.066;2022-09-27T11:21:20;3.63;;;0.90;;
21820;SDS011;11073;48.586;12.066;2022-09-27T11:24:13;2.40;;;1.10;;
21820;SDS011;11073;48.586;12.066;2022-09-27T11:26:50;2.50;;;1.20;;
21820;SDS011;11073;48.586;12.066;2022-09-27T11:29:53;0.95;;;0.50;;
21820;SDS011;11073;48.586;12.066;2022-09-27T11:35:41;3.42;;;2.08;;
21820;SDS011;11073;48.586;12.066;2022-09-27T11:38:27;0.82;;;0.70;;
21820;SDS011;11073;48.586;12.066;2022-09-27T11:41:22;0.70;;;0.60;;
21820;SDS011;11073;48.586;12.066;2022-09-27T11:47:10;1.08;;;0.65;;
21820;SDS011;11073;48.586;12.066;2022-09-27T11:49:52;1.75;;;0.80;;
21820;SDS011;11073;48.586;12.066;2022-09-27T11:52:34;1.30;;;0.65;;
21820;SDS011;11073;48.586;12.066;2022-09-27T11:55:18;1.08;;;0.57;;
21820;SDS011;11073;48.586;12.066;2022-09-27T11:57:55;0.40;;;0.35;;
21820;SDS011;11073;48.586;12.066;2022-09-27T12:00:35;0.80;;;0.50;;
21820;SDS011;11073;48.586;12.066;2022-09-27T12:03:21;0.77;;;0.40;;
21820;SDS011;11073;48.586;12.066;2022-09-27T12:06:08;0.47;;;0.30;;
21820;SDS011;11073;48.586;12.066;2022-09-27T12:08:46;0.47;;;0.30;;
21820;SDS011;11073;48.586;12.066;2022-09-27T12:11:23;2.90;;;0.40;;
21820;SDS011;11073;48.586;12.066;2022-09-27T12:13:58;1.73;;;0.47;;
21820;SDS011;11073;48.586;12.066;2022-09-27T12:16:30;0.80;;;0.30;;
21820;SDS011;11073;48.586;12.066;2022-09-27T12:18:59;0.90;;;0.60;;
21820;SDS011;11073;48.586;12.066;2022-09-27T12:21:51;2.05;;;0.30;;
21820;SDS011;11073;48.586;12.066;2022-09-27T12:24:22;0.47;;;0.40;;
21820;SDS011;11073;48.586;12.066;2022-09-27T12:27:05;0.50;;;0.30;;
21820;SDS011;11073;48.586;12.066;2022-09-27T12:29:37;1.85;;;0.40;;
21820;SDS011;11073;48.586;12.066;2022-09-27T12:32:10;0.65;;;0.30;;
21820;SDS011;11073;48.586;12.066;2022-09-27T12:34:45;1.10;;;0.57;;
21820;SDS011;11073;48.586;12.066;2022-09-27T12:37:20;1.15;;;0.60;;
21820;SDS011;11073;48.586;12.066;2022-09-27T12:39:53;3.00;;;0.73;;
21820;SDS011;11073;48.586;12.066;2022-09-27T12:42:35;5.07;;;0.47;;
21820;SDS011;11073;48.586;12.066;2022-09-27T12:45:25;1.17;;;0.38;;
21820;SDS011;11073;48.586;12.066;2022-09-27T12:48:05;0.50;;;0.40;;
21820;SDS011;11073;48.586;12.066;2022-09-27T12:50:45;1.63;;;0.75;;
21820;SDS011;11073;48.586;12.066;2022-09-27T12:53:18;3.17;;;1.20;;
21820;SDS011;11073;48.586;12.066;2022-09-27T12:55:58;1.58;;;0.60;;
21820;SDS011;11073;48.586;12.066;2022-09-27T12:58:41;1.90;;;1.00;;
21820;SDS011;11073;48.586;12.066;2022-09-27T13:01:30;1.98;;;0.93;;
21820;SDS011;11073;48.586;12.066;2022-09-27T13:04:15;0.70;;;0.50;;
21820;SDS011;11073;48.586;12.066;2022-09-27T13:07:08;1.42;;;0.95;;
21820;SDS011;11073;48.586;12.066;2022-09-27T13:09:53;0.82;;;0.40;;
21820;SDS011;11073;48.586;12.066;2022-09-27T13:12:35;1.02;;;0.60;;
21820;SDS011;11073;48.586;12.066;2022-09-27T13:15:12;1.20;;;0.73;;
21820;SDS011;11073;48.586;12.066;2022-09-27T13:17:51;5.07;;;1.63;;
21820;SDS011;11073;48.586;12.066;2022-09-27T13:20:39;2.22;;;1.00;;
21820;SDS011;11073;48.586;12.066;2022-09-27T13:26:47;2.35;;;0.85;;
21820;SDS011;11073;48.586;12.066;2022-09-27T13:32:17;3.20;;;1.95;;
21820;SDS011;11073;48.586;12.066;2022-09-27T13:35:16;4.63;;;2.67;;
21820;SDS011;11073;48.586;12.066;2022-09-27T13:37:53;2.63;;;1.77;;
21820;SDS011;11073;48.586;12.066;2022-09-27T13:40:47;3.33;;;1.10;;
21820;SDS011;11073;48.586;12.066;2022-09-27T13:43:34;3.10;;;1.73;;
21820;SDS011;11073;48.586;12.066;2022-09-27T13:46:37;0.75;;;0.38;;
21820;SDS011;11073;48.586;12.066;2022-09-27T13:49:22;0.88;;;0.43;;
21820;SDS011;11073;48.586;12.066;2022-09-27T13:52:04;1.92;;;0.80;;
21820;SDS011;11073;48.586;12.066;2022-09-27T13:54:57;1.33;;;0.90;;
21820;SDS011;11073;48.586;12.066;2022-09-27T13:57:41;1.02;;;0.82;;
21820;SDS011;11073;48.586;12.066;2022-09-27T14:00:20;2.85;;;2.05;;
21820;SDS011;11073;48.586;12.066;2022-09-27T14:02:58;1.17;;;0.65;;
21820;SDS011;11073;48.586;12.066;2022-09-27T14:05:33;1.00;;;0.77;;
21820;SDS011;11073;48.586;12.066;2022-09-27T14:08:12;1.30;;;0.90;;
21820;SDS011;11073;48.586;12.066;2022-09-27T14:10:47;1.67;;;1.20;;
21820;SDS011;11073;48.586;12.066;2022-09-27T14:13:18;1.52;;;0.82;;
21820;SDS011;11073;48.586;12.066;2022-09-27T14:15:56;2.35;;;1.50;;
21820;SDS011;11073;48.586;12.066;2022-09-27T14:18:30;1.92;;;1.20;;
21820;SDS011;11073;48.586;12.066;2022-09-27T14:21:09;3.28;;;1.40;;
21820;SDS011;11073;48.586;12.066;2022-09-27T14:23:53;2.55;;;0.50;;
21820;SDS011;11073;48.586;12.066;2022-09-27T14:26:23;3.90;;;0.80;;
21820;SDS011;11073;48.586;12.066;2022-09-27T14:28:53;0.98;;;0.55;;
21820;SDS011;11073;48.586;12.066;2022-09-27T14:31:28;1.70;;;0.70;;
21820;SDS011;11073;48.586;12.066;2022-09-27T14:34:11;2.05;;;0.60;;
21820;SDS011;11073;48.586;12.066;2022-09-27T14:36:46;1.05;;;0.55;;
21820;SDS011;11073;48.586;12.066;2022-09-27T14:39:51;0.55;;;0.40;;
21820;SDS011;11073;48.586;12.066;2022-09-27T14:42:29;0.63;;;0.40;;
21820;SDS011;11073;48.586;12.066;2022-09-27T14:45:04;1.17;;;0.63;;
21820;SDS011;11073;48.586;12.066;2022-09-27T14:47:45;1.65;;;0.57;;
21820;SDS011;11073;48.586;12.066;2022-09-27T14:50:16;1.10;;;0.70;;
21820;SDS011;11073;48.586;12.066;2022-09-27T14:52:48;1.20;;;0.52;;
21820;SDS011;11073;48.586;12.066;2022-09-27T14:55:22;1.42;;;0.80;;
21820;SDS011;11073;48.586;12.066;2022-09-27T14:57:55;2.28;;;0.82;;
21820;SDS011;11073;48.586;12.066;2022-09-27T15:00:26;1.42;;;0.80;;
21820;SDS011;11073;48.586;12.066;2022-09-27T15:02:57;0.73;;;0.50;;
21820;SDS011;11073;48.586;12.066;2022-09-27T15:05:30;0.82;;;0.50;;
21820;SDS011;11073;48.586;12.066;2022-09-27T15:08:03;1.75;;;0.50;;
21820;SDS011;11073;48.586;12.066;2022-09-27T15:10:34;0.70;;;0.50;;
21820;SDS011;11073;48.586;12.066;2022-09-27T15:13:04;1.35;;;0.60;;
21820;SDS011;11073;48.586;12.066;2022-09-27T15:15:33;2.10;;;0.68;;
21820;SDS011;11073;48.586;12.066;2022-09-27T15:21:08;0.70;;;0.50;;
21820;SDS011;11073;48.586;12.066;2022-09-27T15:23:42;1.38;;;0.50;;
21820;SDS011;11073;48.586;12.066;2022-09-27T15:26:13;2.53;;;0.88;;
21820;SDS011;11073;48.586;12.066;2022-09-27T15:28:44;1.27;;;0.60;;
21820;SDS011;11073;48.586;12.066;2022-09-27T15:31:15;0.75;;;0.50;;
21820;SDS011;11073;48.586;12.066;2022-09-27T15:33:51;5.07;;;0.80;;
21820;SDS011;11073;48.586;12.066;2022-09-27T15:39:25;1.10;;;0.40;;
21820;SDS011;11073;48.586;12.066;2022-09-27T15:41:59;0.95;;;0.50;;
21820;SDS011;11073;48.586;12.066;2022-09-27T15:44:36;3.20;;;0.68;;
21820;SDS011;11073;48.586;12.066;2022-09-27T15:50:34;2.17;;;0.90;;
21820;SDS011;11073;48.586;12.066;2022-09-27T15:53:04;2.63;;;1.00;;
21820;SDS011;11073;48.586;12.066;2022-09-27T15:55:40;1.30;;;0.50;;
21820;SDS011;11073;48.586;12.066;2022-09-27T15:58:12;2.08;;;1.42;;
21820;SDS011;11073;48.586;12.066;2022-09-27T16:00:49;2.97;;;1.20;;